createdAt,value
2022-11-14T00:01:12.748Z,95.60
2022-11-14T00:03:39.636Z,95.60
2022-11-14T00:06:07.519Z,95.70
2022-11-14T00:08:35.018Z,95.70
2022-11-14T00:11:02.008Z,95.70
2022-11-14T00:13:29.107Z,95.70
2022-11-14T00:15:55.947Z,95.60
2022-11-14T00:18:23.089Z,95.60
2022-11-14T00:20:51.626Z,95.50
2022-11-14T00:23:19.063Z,95.50
2022-11-14T00:25:46.379Z,95.50
2022-11-14T00:28:14.146Z,95.40
2022-11-14T00:30:40.992Z,95.40
2022-11-14T00:33:07.907Z,95.40
2022-11-14T00:35:34.746Z,95.40
2022-11-14T00:38:01.501Z,95.40
2022-11-14T00:40:28.281Z,95.40
2022-11-14T00:42:55.033Z,95.40
2022-11-14T00:45:21.832Z,95.40
2022-11-14T00:47:48.738Z,95.40
2022-11-14T00:50:18.973Z,95.40
2022-11-14T00:52:45.844Z,95.50
2022-11-14T00:55:12.683Z,95.40
2022-11-14T00:57:39.595Z,95.40
2022-11-14T01:00:08.183Z,95.40
2022-11-14T01:02:34.952Z,95.40
2022-11-14T01:05:02.403Z,95.40
2022-11-14T01:07:29.232Z,95.40
2022-11-14T01:09:56.178Z,95.40
2022-11-14T01:12:23.132Z,95.50
2022-11-14T01:14:49.983Z,95.50
2022-11-14T01:17:16.809Z,95.50
2022-11-14T01:19:43.684Z,95.60
2022-11-14T01:22:10.484Z,95.60
2022-11-14T01:24:37.356Z,95.60
2022-11-14T01:27:04.399Z,95.90
2022-11-14T01:29:31.217Z,95.60
2022-11-14T01:31:58.141Z,95.60
2022-11-14T01:34:25.125Z,95.70
2022-11-14T01:36:52.275Z,95.70
2022-11-14T01:39:19.092Z,95.80
2022-11-14T01:41:45.987Z,95.80
2022-11-14T01:44:37.078Z,95.80
2022-11-14T01:47:04.474Z,95.80
2022-11-14T01:49:37.974Z,95.90
2022-11-14T01:52:19.131Z,95.90
2022-11-14T01:54:49.347Z,95.90
2022-11-14T01:57:20.324Z,96.00
2022-11-14T01:59:51.675Z,96.00
2022-11-14T02:02:25.355Z,96.10
2022-11-14T02:04:59.173Z,96.10
2022-11-14T02:07:29.599Z,96.10
2022-11-14T02:09:57.292Z,96.10
2022-11-14T02:12:24.258Z,96.20
2022-11-14T02:14:55.691Z,96.20
2022-11-14T02:17:31.230Z,96.20
2022-11-14T02:20:12.459Z,96.30
2022-11-14T02:22:41.020Z,96.40
2022-11-14T02:25:09.806Z,96.30
2022-11-14T02:27:39.286Z,96.40
2022-11-14T02:30:11.682Z,96.40
2022-11-14T02:33:09.606Z,96.40
2022-11-14T02:35:25.288Z,96.50
2022-11-14T02:37:52.105Z,96.50
2022-11-14T02:40:18.952Z,96.60
2022-11-14T02:42:45.806Z,96.60
2022-11-14T02:45:13.418Z,96.60
2022-11-14T02:47:40.181Z,96.70
2022-11-14T02:50:07.184Z,96.70
2022-11-14T02:52:33.952Z,96.80
2022-11-14T02:55:00.805Z,96.80
2022-11-14T02:57:27.642Z,96.90
2022-11-14T02:59:54.402Z,96.90
2022-11-14T03:02:21.150Z,97.00
2022-11-14T03:04:47.931Z,97.00
2022-11-14T03:07:14.830Z,97.00
2022-11-14T03:09:42.194Z,97.10
2022-11-14T03:12:09.527Z,97.10
2022-11-14T03:14:36.442Z,97.20
2022-11-14T03:17:03.458Z,97.20
2022-11-14T03:19:30.199Z,97.20
2022-11-14T03:21:56.983Z,97.30
2022-11-14T03:24:23.721Z,97.30
2022-11-14T03:26:50.578Z,97.30
2022-11-14T03:29:17.407Z,97.30
2022-11-14T03:31:44.224Z,97.30
2022-11-14T03:34:11.123Z,97.40
2022-11-14T03:36:38.366Z,97.50
2022-11-14T03:39:06.366Z,97.60
2022-11-14T03:41:33.460Z,97.60
2022-11-14T03:44:00.300Z,97.60
2022-11-14T03:46:27.498Z,97.70
2022-11-14T03:48:54.328Z,97.70
2022-11-14T03:51:21.383Z,97.70
2022-11-14T03:53:48.179Z,97.70
2022-11-14T03:56:15.022Z,97.80
2022-11-14T03:58:42.018Z,97.80
2022-11-14T04:01:08.831Z,97.80
2022-11-14T04:03:35.698Z,97.90
2022-11-14T04:06:03.258Z,97.90
2022-11-14T04:08:30.625Z,97.90
2022-11-14T04:10:57.694Z,97.90
2022-11-14T04:13:24.425Z,98.00
2022-11-14T04:16:00.489Z,98.00
2022-11-14T04:18:27.776Z,98.00
2022-11-14T04:20:54.859Z,98.10
2022-11-14T04:23:22.184Z,98.10
2022-11-14T04:25:48.963Z,98.00
2022-11-14T04:28:15.728Z,98.10
2022-11-14T04:30:42.535Z,98.10
2022-11-14T04:33:09.372Z,98.20
2022-11-14T04:35:36.106Z,98.20
2022-11-14T04:38:03.077Z,98.30
2022-11-14T04:40:29.962Z,98.30
2022-11-14T04:42:56.776Z,98.30
2022-11-14T04:45:23.616Z,98.40
2022-11-14T04:47:50.466Z,98.40
2022-11-14T04:50:17.479Z,98.40
2022-11-14T04:52:44.466Z,98.40
2022-11-14T04:55:11.471Z,98.40
2022-11-14T04:57:38.317Z,98.30
2022-11-14T05:00:05.860Z,98.40
2022-11-14T05:02:33.100Z,98.40
2022-11-14T05:04:59.916Z,98.40
2022-11-14T05:07:26.843Z,98.40
2022-11-14T05:09:54.053Z,98.40
2022-11-14T05:12:21.164Z,98.50
2022-11-14T05:14:48.898Z,98.50
2022-11-14T05:17:15.723Z,98.50
2022-11-14T05:19:43.507Z,98.50
2022-11-14T05:22:10.308Z,98.50
2022-11-14T05:24:37.117Z,98.50
2022-11-14T05:27:04.009Z,98.50
2022-11-14T05:29:30.927Z,98.50
2022-11-14T05:31:58.161Z,98.50
2022-11-14T05:34:25.758Z,98.60
2022-11-14T05:36:52.557Z,98.60
2022-11-14T05:39:19.322Z,98.60
2022-11-14T05:41:46.055Z,98.60
2022-11-14T05:44:12.866Z,98.60
2022-11-14T05:46:39.720Z,98.60
2022-11-14T05:49:06.502Z,98.60
2022-11-14T05:51:33.649Z,98.70
2022-11-14T05:54:00.438Z,98.70
2022-11-14T05:56:27.326Z,98.70
2022-11-14T05:58:54.124Z,98.70
2022-11-14T06:01:21.396Z,98.70
2022-11-14T06:03:49.328Z,98.70
2022-11-14T06:06:20.375Z,98.80
2022-11-14T06:08:47.587Z,98.70
2022-11-14T06:11:21.719Z,98.60
2022-11-14T06:13:48.917Z,98.60
2022-11-14T06:16:19.126Z,98.60
2022-11-14T06:18:46.352Z,98.60
2022-11-14T06:21:18.930Z,98.60
2022-11-14T06:23:49.920Z,98.70
2022-11-14T06:26:22.595Z,98.70
2022-11-14T06:28:50.868Z,98.70
2022-11-14T06:31:18.820Z,98.60
2022-11-14T06:33:45.855Z,98.60
2022-11-14T06:36:13.834Z,98.70
2022-11-14T06:38:42.034Z,98.60
2022-11-14T06:41:13.345Z,98.60
2022-11-14T06:43:42.202Z,98.70
2022-11-14T06:46:11.348Z,98.70
2022-11-14T06:48:38.987Z,98.70
2022-11-14T06:51:06.414Z,99.00
2022-11-14T06:53:34.999Z,98.70
2022-11-14T06:56:07.989Z,98.70
2022-11-14T06:58:41.458Z,98.70
2022-11-14T07:01:20.208Z,98.70
2022-11-14T07:03:47.882Z,98.70
2022-11-14T07:06:17.760Z,98.70
2022-11-14T07:08:44.892Z,98.80
2022-11-14T07:11:22.951Z,98.70
2022-11-14T07:13:54.927Z,98.70
2022-11-14T07:16:25.538Z,98.70
2022-11-14T07:18:52.507Z,98.70
2022-11-14T07:21:19.258Z,98.70
2022-11-14T07:23:46.011Z,98.70
2022-11-14T07:26:12.952Z,98.60
2022-11-14T07:28:42.539Z,98.70
2022-11-14T07:31:14.560Z,98.70
2022-11-14T07:33:42.455Z,98.70
2022-11-14T07:36:10.295Z,98.70
2022-11-14T07:38:38.026Z,98.80
2022-11-14T07:41:12.291Z,98.70
2022-11-14T07:43:39.623Z,98.70
2022-11-14T07:46:10.569Z,98.60
2022-11-14T07:48:38.004Z,98.50
2022-11-14T07:51:07.136Z,98.50
2022-11-14T07:53:38.504Z,98.60
2022-11-14T07:56:09.779Z,98.60
2022-11-14T07:58:38.079Z,98.60
2022-11-14T08:01:06.672Z,98.50
2022-11-14T08:03:34.625Z,98.60
2022-11-14T08:06:09.764Z,98.50
2022-11-14T08:08:36.678Z,98.40
2022-11-14T08:11:04.231Z,98.40
2022-11-14T08:13:33.407Z,98.40
2022-11-14T08:16:12.484Z,98.80
2022-11-14T08:18:40.239Z,99.30
2022-11-14T08:21:07.191Z,98.50
2022-11-14T08:23:34.028Z,97.50
2022-11-14T08:26:00.864Z,95.70
2022-11-14T08:28:28.114Z,94.80
2022-11-14T08:31:00.549Z,94.30
2022-11-14T08:33:27.345Z,92.40
2022-11-14T08:35:54.488Z,90.90
2022-11-14T08:38:21.360Z,87.00
2022-11-14T08:40:48.130Z,82.80
2022-11-14T08:43:14.955Z,79.20
2022-11-14T08:45:47.318Z,73.70
2022-11-14T08:48:14.105Z,71.20
2022-11-14T08:50:40.876Z,72.60
2022-11-14T08:53:07.732Z,75.10
2022-11-14T08:55:37.271Z,77.40
2022-11-14T08:58:04.051Z,79.30
2022-11-14T09:00:30.852Z,80.90
2022-11-14T09:02:57.684Z,82.40
2022-11-14T09:05:24.497Z,83.70
2022-11-14T09:07:51.264Z,84.70
2022-11-14T09:10:18.272Z,85.70
2022-11-14T09:12:45.069Z,86.30
2022-11-14T09:15:11.844Z,86.80
2022-11-14T09:17:38.614Z,87.50
2022-11-14T09:20:06.422Z,87.90
2022-11-14T09:22:33.173Z,88.30
2022-11-14T09:24:59.915Z,88.70
2022-11-14T09:27:27.448Z,91.00
2022-11-14T09:29:54.189Z,87.60
2022-11-14T09:32:20.945Z,77.80
2022-11-14T09:34:48.122Z,68.70
2022-11-14T09:37:15.001Z,63.10
2022-11-14T09:39:42.045Z,61.00
2022-11-14T09:42:37.035Z,59.50
2022-11-14T09:45:11.167Z,56.20
2022-11-14T09:47:44.394Z,56.70
2022-11-14T09:50:13.660Z,57.30
2022-11-14T09:52:46.291Z,58.00
2022-11-14T09:55:31.002Z,59.00
2022-11-14T09:58:02.784Z,60.30
2022-11-14T10:00:55.052Z,61.10
2022-11-14T10:03:54.780Z,61.60
2022-11-14T10:06:22.863Z,61.40
2022-11-14T10:09:22.209Z,61.20
2022-11-14T10:12:20.588Z,60.80
2022-11-14T10:15:21.764Z,61.60
2022-11-14T10:17:56.327Z,63.30
2022-11-14T10:20:44.563Z,62.20
2022-11-14T10:23:35.533Z,60.50
2022-11-14T10:26:20.483Z,61.00
2022-11-14T10:28:59.262Z,58.10
2022-11-14T10:31:45.736Z,57.90
2022-11-14T10:34:34.502Z,58.10
2022-11-14T10:37:20.263Z,58.80
2022-11-14T10:40:20.763Z,60.20
2022-11-14T10:42:51.773Z,59.10
2022-11-14T10:45:34.932Z,58.80
2022-11-14T10:48:14.106Z,59.50
2022-11-14T10:50:57.157Z,59.20
2022-11-14T10:53:52.049Z,58.80
2022-11-14T10:56:18.981Z,57.60
2022-11-14T10:58:48.795Z,58.50
2022-11-14T11:01:35.567Z,58.90
2022-11-14T11:04:27.211Z,58.00
2022-11-14T11:06:55.945Z,56.70
2022-11-14T11:09:46.956Z,58.00
2022-11-14T11:12:22.923Z,56.50
2022-11-14T11:15:11.056Z,55.20
2022-11-14T11:17:42.948Z,54.30
2022-11-14T11:20:42.163Z,53.00
2022-11-14T11:23:18.210Z,50.10
2022-11-14T11:25:45.005Z,47.80
2022-11-14T11:28:22.349Z,47.00
2022-11-14T11:31:09.864Z,46.60
2022-11-14T11:33:39.429Z,46.70
2022-11-14T11:36:16.865Z,47.80
2022-11-14T11:38:45.236Z,48.70
2022-11-14T11:42:06.173Z,49.60
2022-11-14T11:44:19.172Z,49.60
2022-11-14T11:47:04.404Z,50.50
2022-11-14T11:49:36.833Z,51.00
2022-11-14T11:52:11.560Z,51.90
2022-11-14T11:55:17.804Z,51.60
2022-11-14T11:57:55.049Z,51.50
2022-11-14T12:00:22.647Z,51.80
2022-11-14T12:02:52.335Z,52.70
2022-11-14T12:05:35.103Z,53.90
2022-11-14T12:08:06.522Z,55.40
2022-11-14T12:10:37.281Z,56.60
2022-11-14T12:13:15.044Z,57.30
2022-11-14T12:15:59.673Z,58.30
2022-11-14T12:18:51.292Z,58.70
2022-11-14T12:21:30.896Z,59.20
2022-11-14T12:24:02.952Z,59.30
2022-11-14T12:27:12.152Z,59.70
2022-11-14T12:30:09.312Z,61.10
2022-11-14T12:32:50.866Z,62.00
2022-11-14T12:35:22.593Z,61.70
2022-11-14T12:37:55.448Z,62.40
2022-11-14T12:40:38.003Z,62.70
2022-11-14T12:43:27.911Z,63.30
2022-11-14T12:45:58.601Z,64.30
2022-11-14T12:48:31.336Z,64.80
2022-11-14T12:50:59.880Z,65.10
2022-11-14T12:53:38.735Z,65.70
2022-11-14T12:56:22.596Z,66.70
2022-11-14T12:59:26.732Z,66.90
2022-11-14T13:01:53.551Z,67.30
2022-11-14T13:04:29.731Z,67.40
2022-11-14T13:07:32.980Z,68.10
2022-11-14T13:10:27.976Z,68.30
2022-11-14T13:13:29.319Z,68.90
2022-11-14T13:16:19.476Z,69.80
2022-11-14T13:19:32.079Z,70.20
2022-11-14T13:22:14.580Z,71.00
2022-11-14T13:24:59.357Z,71.90
2022-11-14T13:27:45.140Z,72.20
2022-11-14T13:30:14.133Z,72.60
2022-11-14T13:32:40.860Z,73.20
2022-11-14T13:35:37.141Z,73.60
2022-11-14T13:38:31.249Z,73.90
2022-11-14T13:41:13.178Z,74.20
2022-11-14T13:44:01.778Z,74.30
2022-11-14T13:46:44.084Z,74.50
2022-11-14T13:49:32.820Z,74.40
2022-11-14T13:52:08.164Z,74.40
2022-11-14T13:54:35.102Z,74.80
2022-11-14T13:57:12.760Z,74.90
2022-11-14T14:00:01.544Z,75.40
2022-11-14T14:02:52.748Z,75.70
2022-11-14T14:05:20.844Z,75.80
2022-11-14T14:08:10.646Z,75.70
2022-11-14T14:10:46.351Z,76.10
2022-11-14T14:14:01.108Z,76.20
2022-11-14T14:16:55.497Z,76.30
2022-11-14T14:19:47.949Z,75.90
2022-11-14T14:22:41.024Z,76.10
2022-11-14T14:25:47.944Z,75.80
2022-11-14T14:28:30.878Z,75.80
2022-11-14T14:31:10.498Z,75.90
2022-11-14T14:33:47.523Z,76.00
2022-11-14T14:36:19.949Z,76.20
2022-11-14T14:38:47.815Z,76.50
2022-11-14T14:41:20.300Z,76.80
2022-11-14T14:43:54.350Z,77.10
2022-11-14T14:46:31.600Z,77.10
2022-11-14T14:49:01.887Z,77.50
2022-11-14T14:51:38.924Z,77.90
2022-11-14T14:54:07.875Z,78.50
2022-11-14T14:56:34.622Z,78.80
2022-11-14T14:59:16.638Z,79.00
2022-11-14T15:01:43.858Z,79.20
2022-11-14T15:04:15.728Z,79.30
2022-11-14T15:06:46.620Z,80.00
2022-11-14T15:09:22.781Z,80.70
2022-11-14T15:11:58.403Z,81.30
2022-11-14T15:14:29.323Z,81.50
2022-11-14T15:17:00.047Z,81.40
2022-11-14T15:19:35.790Z,81.60
2022-11-14T15:22:20.108Z,81.70
2022-11-14T15:25:11.803Z,82.00
2022-11-14T15:27:45.841Z,82.20
2022-11-14T15:30:23.119Z,82.00
2022-11-14T15:32:55.701Z,82.10
2022-11-14T15:35:32.450Z,82.70
2022-11-14T15:38:41.917Z,83.20
2022-11-14T15:41:23.297Z,83.60
2022-11-14T15:43:55.277Z,83.70
2022-11-14T15:46:50.948Z,83.70
2022-11-14T15:49:27.767Z,84.00
2022-11-14T15:52:03.486Z,83.80
2022-11-14T15:54:35.461Z,84.20
2022-11-14T15:57:12.773Z,84.70
2022-11-14T15:59:40.222Z,85.30
2022-11-14T16:02:16.467Z,85.40
2022-11-14T16:04:47.617Z,85.90
2022-11-14T16:07:15.768Z,86.40
2022-11-14T16:09:46.078Z,86.90
2022-11-14T16:12:13.424Z,87.00
2022-11-14T16:14:40.713Z,87.50
2022-11-14T16:17:16.530Z,88.00
2022-11-14T16:19:43.911Z,88.60
2022-11-14T16:22:15.308Z,89.20
2022-11-14T16:24:43.629Z,89.60
2022-11-14T16:27:10.579Z,90.00
2022-11-14T16:29:46.597Z,90.20
2022-11-14T16:32:13.474Z,90.40
2022-11-14T16:34:40.660Z,90.50
2022-11-14T16:37:14.361Z,90.70
2022-11-14T16:39:41.491Z,90.90
2022-11-14T16:42:11.213Z,91.00
2022-11-14T16:44:46.350Z,91.20
2022-11-14T16:47:18.553Z,91.30
2022-11-14T16:49:45.372Z,91.40
2022-11-14T16:52:13.160Z,91.50
2022-11-14T16:54:40.001Z,91.70
2022-11-14T16:57:06.817Z,91.80
2022-11-14T16:59:33.626Z,92.00
2022-11-14T17:02:03.088Z,92.10
2022-11-14T17:04:29.983Z,92.20
2022-11-14T17:06:56.923Z,92.30
2022-11-14T17:09:23.769Z,92.50
2022-11-14T17:11:50.599Z,92.60
2022-11-14T17:14:20.686Z,92.70
2022-11-14T17:16:47.492Z,92.80
2022-11-14T17:19:14.409Z,92.90
2022-11-14T17:21:41.531Z,93.10
2022-11-14T17:24:08.430Z,93.20
2022-11-14T17:26:36.634Z,93.20
2022-11-14T17:29:04.389Z,93.50
2022-11-14T17:31:37.428Z,93.30
2022-11-14T17:34:12.330Z,93.40
2022-11-14T17:36:48.017Z,93.50
2022-11-14T17:39:15.202Z,93.60
2022-11-14T17:41:41.990Z,93.70
2022-11-14T17:44:09.937Z,93.70
2022-11-14T17:46:40.011Z,93.80
2022-11-14T17:49:06.852Z,93.90
2022-11-14T17:51:36.840Z,94.00
2022-11-14T17:54:03.797Z,94.10
2022-11-14T17:56:30.843Z,94.10
2022-11-14T17:59:02.998Z,94.20
2022-11-14T18:01:31.612Z,94.40
2022-11-14T18:04:03.200Z,94.50
2022-11-14T18:06:42.582Z,94.50
2022-11-14T18:09:32.383Z,94.60
2022-11-14T18:12:06.911Z,94.80
2022-11-14T18:14:33.796Z,94.70
2022-11-14T18:17:16.034Z,94.80
2022-11-14T18:19:45.853Z,94.80
2022-11-14T18:22:12.756Z,94.90
2022-11-14T18:24:43.445Z,94.90
2022-11-14T18:27:10.226Z,94.90
2022-11-14T18:29:37.389Z,95.00
2022-11-14T18:32:04.318Z,95.00
2022-11-14T18:34:31.144Z,95.00
2022-11-14T18:36:58.029Z,95.10
2022-11-14T18:39:26.120Z,95.20
2022-11-14T18:41:52.946Z,95.20
2022-11-14T18:44:21.192Z,95.30
2022-11-14T18:46:48.089Z,95.30
2022-11-14T18:49:14.954Z,95.40
2022-11-14T18:51:42.318Z,95.50
2022-11-14T18:54:14.391Z,95.50
2022-11-14T18:56:41.385Z,95.50
2022-11-14T18:59:08.635Z,95.60
2022-11-14T19:01:36.055Z,95.60
2022-11-14T19:04:08.009Z,95.60
2022-11-14T19:06:37.400Z,95.60
2022-11-14T19:09:11.317Z,95.80
2022-11-14T19:11:57.517Z,95.90
2022-11-14T19:14:24.539Z,95.90
2022-11-14T19:16:53.861Z,95.90
2022-11-14T19:19:20.822Z,95.90
2022-11-14T19:21:51.088Z,96.00
2022-11-14T19:24:18.484Z,96.00
2022-11-14T19:26:47.281Z,96.00
2022-11-14T19:29:14.551Z,96.00
2022-11-14T19:31:50.540Z,96.00
2022-11-14T19:34:26.060Z,96.00
2022-11-14T19:36:59.756Z,96.10
2022-11-14T19:39:27.357Z,96.20
2022-11-14T19:41:54.126Z,96.20
2022-11-14T19:44:20.887Z,96.30
2022-11-14T19:46:48.464Z,96.30
2022-11-14T19:49:15.708Z,96.30
2022-11-14T19:51:42.945Z,96.30
2022-11-14T19:54:10.914Z,96.30
2022-11-14T19:56:43.880Z,96.30
2022-11-14T19:59:47.356Z,96.30
2022-11-14T20:02:30.311Z,96.30
2022-11-14T20:04:59.898Z,96.50
2022-11-14T20:07:46.602Z,96.50
2022-11-14T20:10:13.913Z,96.30
2022-11-14T20:12:40.787Z,96.60
2022-11-14T20:15:08.199Z,96.30
2022-11-14T20:17:43.165Z,96.40
2022-11-14T20:20:16.135Z,96.50
2022-11-14T20:22:45.233Z,96.60
2022-11-14T20:25:15.753Z,96.60
2022-11-14T20:27:42.568Z,96.60
2022-11-14T20:30:09.707Z,96.60
2022-11-14T20:32:36.870Z,96.60
2022-11-14T20:35:06.914Z,96.50
2022-11-14T20:37:36.064Z,96.30
2022-11-14T20:40:03.092Z,96.20
2022-11-14T20:42:32.643Z,96.10
2022-11-14T20:44:59.440Z,95.90
2022-11-14T20:47:27.619Z,95.80
2022-11-14T20:49:54.523Z,95.60
2022-11-14T20:52:21.419Z,95.60
2022-11-14T20:54:50.193Z,95.80
2022-11-14T20:57:21.895Z,96.00
2022-11-14T20:59:49.203Z,96.20
2022-11-14T21:02:16.069Z,96.20
2022-11-14T21:04:44.942Z,96.10
2022-11-14T21:07:11.874Z,96.00
2022-11-14T21:09:39.438Z,95.90
2022-11-14T21:12:06.266Z,95.90
2022-11-14T21:14:33.014Z,95.70
2022-11-14T21:17:03.770Z,95.60
2022-11-14T21:19:39.578Z,95.50
2022-11-14T21:22:15.374Z,95.40
2022-11-14T21:24:45.475Z,95.40
2022-11-14T21:27:13.250Z,95.30
2022-11-14T21:30:08.051Z,95.30
2022-11-14T21:32:36.260Z,95.40
2022-11-14T21:35:27.161Z,95.10
2022-11-14T21:37:53.944Z,95.00
2022-11-14T21:40:23.899Z,94.90
2022-11-14T21:42:50.713Z,94.90
2022-11-14T21:45:17.546Z,94.90
2022-11-14T21:47:44.419Z,95.20
2022-11-14T21:50:11.239Z,94.90
2022-11-14T21:52:38.019Z,94.90
2022-11-14T21:55:07.298Z,95.00
2022-11-14T21:57:34.059Z,94.90
2022-11-14T22:00:00.820Z,94.90
2022-11-14T22:02:46.413Z,94.90
2022-11-14T22:05:13.434Z,94.90
2022-11-14T22:07:42.189Z,94.90
2022-11-14T22:10:09.267Z,94.90
2022-11-14T22:12:42.171Z,94.90
2022-11-14T22:15:09.344Z,94.80
2022-11-14T22:17:36.106Z,94.80
2022-11-14T22:20:06.333Z,94.80
2022-11-14T22:22:35.909Z,94.90
2022-11-14T22:25:05.691Z,94.90
2022-11-14T22:27:32.802Z,94.90
2022-11-14T22:29:59.542Z,95.00
2022-11-14T22:32:26.252Z,95.00
2022-11-14T22:34:52.964Z,95.00
2022-11-14T22:37:19.778Z,95.00
2022-11-14T22:39:46.871Z,95.00
2022-11-14T22:42:13.697Z,95.00
2022-11-14T22:44:40.455Z,95.00
2022-11-14T22:47:07.242Z,95.00
2022-11-14T22:49:34.116Z,95.00
2022-11-14T22:52:00.946Z,95.00
2022-11-14T22:54:28.048Z,95.00
2022-11-14T22:57:15.103Z,95.10
2022-11-14T22:59:42.099Z,95.10
2022-11-14T23:02:12.043Z,95.10
2022-11-14T23:04:54.951Z,95.10
2022-11-14T23:07:27.038Z,95.10
2022-11-14T23:09:53.832Z,95.10
2022-11-14T23:12:26.861Z,95.10
2022-11-14T23:14:57.334Z,95.10
2022-11-14T23:17:24.537Z,95.10
2022-11-14T23:19:51.343Z,95.20
2022-11-14T23:22:18.037Z,95.20
2022-11-14T23:24:44.797Z,95.30
2022-11-14T23:27:11.705Z,95.30
2022-11-14T23:29:38.893Z,95.40
2022-11-14T23:32:06.007Z,95.30
2022-11-14T23:34:32.790Z,95.30
2022-11-14T23:36:59.526Z,95.30
2022-11-14T23:39:26.243Z,95.30
2022-11-14T23:41:53.002Z,95.30
2022-11-14T23:44:19.773Z,95.30
2022-11-14T23:46:46.536Z,95.30
2022-11-14T23:49:13.387Z,95.40
2022-11-14T23:51:42.888Z,95.30
2022-11-14T23:54:09.664Z,95.40
2022-11-14T23:56:36.484Z,95.40
2022-11-14T23:59:03.292Z,95.40
